Time;durP1;ratioP1;P1;durP2;ratioP2;P2;SDS_P1;SDS_P2;PMS_P1;PMS_P2;Temp;Humidity;BMP_temperature;BMP_pressure;BME280_temperature;BME280_humidity;BME280_pressure;Samples;Min_cycle;Max_cycle;Signal;HPM_P1;HPM_P2
2022/04/09 00:01:35;;;;;;;18.10;8.60;;;;;;;8.96;66.51;98379.24;24973;1318;3026915;-62
2022/04/09 00:04:04;;;;;;;33.80;12.10;;;;;;;8.69;67.49;98381.52;25066;1318;3026738;-63
2022/04/09 00:06:34;;;;;;;27.30;11.60;;;;;;;8.43;68.39;98380.33;25029;1318;3051130;-61
2022/04/09 00:09:03;;;;;;;22.20;10.60;;;;;;;8.24;69.06;98380.95;25041;1318;3026502;-64
2022/04/09 00:11:42;;;;;;;27.20;12.00;;;;;;;8.10;69.16;98378.23;25090;1319;3051452;-64
2022/04/09 00:14:12;;;;;;;34.30;12.30;;;;;;;7.96;69.51;98374.63;25101;1318;3026262;-64
2022/04/09 00:16:42;;;;;;;35.70;12.30;;;;;;;7.95;69.25;98376.98;25087;1318;3026240;-63
2022/04/09 00:19:11;;;;;;;32.90;12.20;;;;;;;7.96;69.13;98373.74;25025;1318;3026687;-62
2022/04/09 00:21:40;;;;;;;23.50;10.10;;;;;;;7.98;69.10;98373.29;25061;1318;3054530;-63
2022/04/09 00:24:09;;;;;;;27.80;10.70;;;;;;;8.51;67.77;98375.36;25092;1318;3026224;-63
2022/04/09 00:26:39;;;;;;;26.20;11.60;;;;;;;9.00;65.55;98370.39;25032;1317;3027711;-62
2022/04/09 00:29:09;;;;;;;29.60;14.10;;;;;;;9.04;65.06;98367.90;25070;1318;3028732;-61
2022/04/09 00:31:38;;;;;;;42.70;14.60;;;;;;;8.93;65.07;98371.14;25014;1318;3026745;-62
2022/04/09 00:34:10;;;;;;;36.70;15.10;;;;;;;8.67;65.38;98366.45;25050;1317;3059456;-62
2022/04/09 00:36:39;;;;;;;33.30;13.90;;;;;;;8.54;65.64;98376.43;25060;1317;3026936;-63
2022/04/09 00:39:09;;;;;;;35.20;14.30;;;;;;;8.41;66.41;98379.23;25094;1318;3053095;-63
2022/04/09 00:41:49;;;;;;;36.00;14.80;;;;;;;8.31;66.58;98385.16;25014;1318;3057294;-63
2022/04/09 00:44:20;;;;;;;43.70;18.30;;;;;;;8.25;66.69;98378.90;25049;1318;3052295;-64
2022/04/09 00:46:49;;;;;;;42.10;18.80;;;;;;;8.09;67.44;98379.29;25032;1318;3026671;-62
2022/04/09 00:49:18;;;;;;;58.20;21.60;;;;;;;8.01;67.52;98377.23;24954;1318;3025961;-62
2022/04/09 00:51:48;;;;;;;50.60;18.90;;;;;;;7.91;68.06;98386.63;25000;1319;3027192;-60
2022/04/09 00:54:19;;;;;;;46.10;17.00;;;;;;;7.71;68.80;98394.04;25010;1318;3026530;-62
2022/04/09 00:56:49;;;;;;;36.10;15.20;;;;;;;7.52;69.86;98405.00;25037;1318;3027074;-62
2022/04/09 00:59:21;;;;;;;36.10;13.70;;;;;;;8.28;68.78;98408.70;24930;1318;3027572;-61
2022/04/09 01:01:50;;;;;;;27.20;11.50;;;;;;;8.90;66.31;98414.25;25022;1318;3049633;-63
2022/04/09 01:04:19;;;;;;;26.80;12.10;;;;;;;8.84;66.36;98418.92;25004;1318;3027004;-61
2022/04/09 01:06:50;;;;;;;19.30;10.00;;;;;;;8.53;66.94;98424.16;25016;1318;3069979;-63
2022/04/09 01:09:19;;;;;;;21.70;9.50;;;;;;;8.13;68.03;98422.98;24977;1318;3026823;-62
2022/04/09 01:11:49;;;;;;;18.80;8.30;;;;;;;7.84;68.98;98429.60;25026;1318;3027243;-60
2022/04/09 01:14:18;;;;;;;24.20;9.10;;;;;;;7.48;70.50;98431.56;24950;1318;3026606;-63
2022/04/09 01:16:50;;;;;;;22.10;11.20;;;;;;;7.45;70.17;98438.42;25088;1318;3027222;-59
2022/04/09 01:19:21;;;;;;;17.90;8.90;;;;;;;7.09;72.09;98439.77;25046;1318;3026249;-64
2022/04/09 01:21:56;;;;;;;19.20;7.20;;;;;;;7.66;71.42;98439.86;25055;1318;3026698;-63
2022/04/09 01:24:25;;;;;;;16.70;8.10;;;;;;;7.79;70.53;98448.41;24984;1319;3026975;-63
2022/04/09 01:26:55;;;;;;;16.90;8.20;;;;;;;7.36;71.53;98452.23;25071;1318;3026338;-63
2022/04/09 01:29:52;;;;;;;16.20;5.90;;;;;;;7.25;71.67;98457.27;25024;1318;3051982;-61
2022/04/09 01:32:22;;;;;;;12.80;5.90;;;;;;;6.99;72.40;98453.27;25078;1318;3026605;-63
2022/04/09 01:35:10;;;;;;;13.20;5.90;;;;;;;6.99;71.99;98447.93;24939;1319;3068171;-62
2022/04/09 01:37:40;;;;;;;11.30;5.40;;;;;;;6.72;73.48;98461.20;25100;1316;3026460;-61
2022/04/09 01:40:11;;;;;;;7.50;4.40;;;;;;;7.21;73.14;98456.27;25042;1318;3027256;-61
2022/04/09 01:43:02;;;;;;;10.20;4.30;;;;;;;7.69;71.17;98459.89;25087;1317;3052691;-62
2022/04/09 01:45:32;;;;;;;11.20;4.20;;;;;;;7.38;71.41;98461.85;25074;1318;3026126;-63
2022/04/09 01:48:05;;;;;;;10.00;4.40;;;;;;;6.63;74.13;98471.84;24987;1318;3026988;-63
2022/04/09 01:50:34;;;;;;;6.60;3.90;;;;;;;6.77;73.18;98477.14;25013;1318;3027195;-62
2022/04/09 01:53:03;;;;;;;6.30;3.50;;;;;;;6.48;74.16;98477.12;25049;1318;3028453;-62
2022/04/09 01:55:33;;;;;;;5.70;3.10;;;;;;;6.64;73.86;98479.61;25038;1315;3027411;-61
2022/04/09 01:58:03;;;;;;;9.10;4.10;;;;;;;7.05;73.41;98476.81;24994;1319;3028242;-59
2022/04/09 02:00:36;;;;;;;6.10;3.70;;;;;;;7.11;72.90;98476.59;25012;1315;3053916;-62
2022/04/09 02:03:05;;;;;;;7.30;3.70;;;;;;;6.84;73.43;98478.91;25057;1315;3026253;-62
2022/04/09 02:05:35;;;;;;;7.40;3.30;;;;;;;6.81;73.01;98477.73;24940;1318;3026639;-63
2022/04/09 02:08:22;;;;;;;5.80;3.00;;;;;;;6.71;73.38;98479.23;25086;1319;3053782;-62
2022/04/09 02:10:51;;;;;;;6.90;3.40;;;;;;;6.90;73.25;98479.79;24980;1318;3026296;-61
2022/04/09 02:13:42;;;;;;;11.00;3.80;;;;;;;7.49;71.48;98474.39;25015;1315;3056401;-63
2022/04/09 02:16:12;;;;;;;4.60;2.50;;;;;;;7.63;71.19;98480.81;25057;1319;3026433;-64
2022/04/09 02:19:02;;;;;;;3.80;2.70;;;;;;;7.24;71.87;98492.31;25051;1315;3053826;-63
2022/04/09 02:21:31;;;;;;;5.10;2.90;;;;;;;7.03;73.02;98493.48;25011;1318;3026594;-61
2022/04/09 02:24:17;;;;;;;8.60;2.30;;;;;;;6.82;74.39;98491.60;24935;1318;3071426;-63
2022/04/09 02:26:46;;;;;;;5.60;2.90;;;;;;;7.35;73.74;98486.08;25031;1316;3026854;-63
2022/04/09 02:29:16;;;;;;;5.70;2.70;;;;;;;7.83;71.73;98493.13;25078;1315;3055136;-63
2022/04/09 02:32:05;;;;;;;4.30;3.00;;;;;;;7.75;71.31;98493.85;24960;1318;3071517;-61
2022/04/09 02:34:36;;;;;;;5.40;3.10;;;;;;;7.46;72.14;98498.15;25012;1316;3026772;-61
2022/04/09 02:37:06;;;;;;;3.70;2.40;;;;;;;7.11;73.38;98490.70;25028;1315;3026722;-60
2022/04/09 02:39:36;;;;;;;4.90;2.10;;;;;;;7.59;72.86;98496.44;25055;1316;3027108;-60
2022/04/09 02:42:06;;;;;;;4.20;2.60;;;;;;;8.21;70.25;98493.11;25109;1316;3026371;-62
2022/04/09 02:44:37;;;;;;;5.10;2.10;;;;;;;8.00;70.14;98495.91;25025;1316;3026451;-62
2022/04/09 02:47:06;;;;;;;5.70;2.60;;;;;;;7.70;70.48;98497.30;25043;1316;3027769;-62
2022/04/09 02:49:36;;;;;;;4.00;2.70;;;;;;;7.44;71.00;98498.80;25093;1318;3026362;-62
2022/04/09 02:52:07;;;;;;;6.00;2.70;;;;;;;7.17;71.74;98503.75;25040;1318;3026372;-60
2022/04/09 02:54:36;;;;;;;3.60;2.10;;;;;;;7.08;72.57;98509.18;24961;1318;3026994;-62
2022/04/09 02:57:06;;;;;;;4.10;2.40;;;;;;;7.42;71.78;98513.84;25052;1318;3028461;-62
2022/04/09 02:59:40;;;;;;;6.40;3.10;;;;;;;7.63;70.84;98515.70;25078;1318;3051911;-63
2022/04/09 03:02:09;;;;;;;8.40;4.10;;;;;;;7.46;71.39;98524.58;25038;1316;3026365;-62
2022/04/09 03:04:38;;;;;;;6.80;3.40;;;;;;;7.19;72.45;98530.26;25007;1319;3055231;-61
2022/04/09 03:07:08;;;;;;;10.00;4.50;;;;;;;6.94;73.09;98531.06;24945;1318;3028597;-61
2022/04/09 03:09:38;;;;;;;8.70;4.70;;;;;;;6.67;74.31;98528.89;24998;1318;3026573;-62
2022/04/09 03:12:10;;;;;;;10.20;4.60;;;;;;;6.59;75.15;98527.60;25055;1319;3052370;-62
2022/04/09 03:14:40;;;;;;;11.10;3.60;;;;;;;7.46;73.21;98525.08;25010;1317;3027546;-63
2022/04/09 03:17:10;;;;;;;6.70;3.50;;;;;;;7.65;71.94;98523.92;25088;1318;3027059;-60
2022/04/09 03:19:42;;;;;;;6.40;2.70;;;;;;;7.64;71.25;98524.71;25049;1318;3026694;-63
2022/04/09 03:22:11;;;;;;;7.60;3.40;;;;;;;7.42;71.25;98525.04;25074;1318;3026694;-61
2022/04/09 03:24:48;;;;;;;9.20;3.50;;;;;;;7.17;71.94;98534.23;25071;1318;3053887;-60
2022/04/09 03:27:17;;;;;;;7.70;4.30;;;;;;;6.93;72.83;98545.29;25003;1318;3028837;-62
2022/04/09 03:29:47;;;;;;;8.40;3.40;;;;;;;6.84;73.25;98543.71;24987;1315;3055550;-61
2022/04/09 03:32:17;;;;;;;6.40;3.10;;;;;;;6.74;73.93;98544.30;25092;1318;3027013;-61
2022/04/09 03:34:47;;;;;;;5.50;3.20;;;;;;;7.30;73.55;98537.95;25032;1318;3026804;-59
2022/04/09 03:37:21;;;;;;;6.30;2.90;;;;;;;7.64;71.48;98542.67;24991;1317;3052785;-62
2022/04/09 03:39:50;;;;;;;7.10;3.80;;;;;;;7.69;71.08;98553.48;25073;1318;3026710;-60
2022/04/09 03:42:19;;;;;;;5.80;3.40;;;;;;;7.40;71.75;98557.57;25051;1318;3070934;-62
2022/04/09 03:44:51;;;;;;;6.20;3.50;;;;;;;7.25;72.15;98554.80;24965;1318;3026341;-62
2022/04/09 03:47:20;;;;;;;6.30;3.60;;;;;;;7.07;72.71;98559.37;24999;1318;3027014;-63
2022/04/09 03:50:04;;;;;;;4.30;2.60;;;;;;;6.82;74.38;98558.58;25029;1318;3071159;-61
2022/04/09 03:52:33;;;;;;;8.30;2.80;;;;;;;7.61;72.00;98553.25;24983;1318;3026265;-62
2022/04/09 03:55:03;;;;;;;4.80;3.00;;;;;;;8.07;69.61;98554.91;25025;1318;3026093;-63
2022/04/09 03:57:33;;;;;;;5.90;3.20;;;;;;;7.98;69.63;98557.59;24957;1318;3026824;-57
2022/04/09 04:00:03;;;;;;;4.10;2.30;;;;;;;7.88;69.88;98550.38;25015;1318;3026925;-62
2022/04/09 04:02:43;;;;;;;5.80;2.90;;;;;;;7.73;70.15;98550.57;25046;1318;3053167;-63
2022/04/09 04:05:14;;;;;;;8.50;2.60;;;;;;;7.56;70.54;98557.59;25032;1316;3026212;-61
2022/04/09 04:07:45;;;;;;;5.40;2.30;;;;;;;7.45;70.96;98560.88;25055;1318;3025976;-62
2022/04/09 04:10:14;;;;;;;4.80;1.90;;;;;;;7.44;71.77;98563.23;25000;1318;3027479;-64
2022/04/09 04:12:46;;;;;;;4.90;2.40;;;;;;;8.09;70.53;98560.69;25037;1319;3026637;-63
2022/04/09 04:15:16;;;;;;;4.90;2.30;;;;;;;8.59;69.53;98564.10;25070;1318;3027054;-62
2022/04/09 04:17:49;;;;;;;4.50;2.70;;;;;;;8.64;69.34;98565.86;25041;1318;3027292;-61
2022/04/09 04:20:35;;;;;;;4.30;2.00;;;;;;;8.49;70.10;98563.38;25015;1318;3059008;-61
2022/04/09 04:23:05;;;;;;;6.40;3.10;;;;;;;8.42;70.06;98550.55;25042;1318;3026290;-60
2022/04/09 04:25:41;;;;;;;5.20;2.80;;;;;;;8.37;70.00;98557.15;25046;1318;3055014;-62
2022/04/09 04:28:12;;;;;;;6.20;2.70;;;;;;;8.12;71.07;98568.34;25035;1319;3026614;-63
2022/04/09 04:30:42;;;;;;;5.30;2.30;;;;;;;8.10;71.24;98568.34;25030;1319;3026705;-61
2022/04/09 04:33:11;;;;;;;5.50;2.80;;;;;;;8.71;70.32;98570.80;25000;1318;3026493;-62
2022/04/09 04:35:47;;;;;;;4.50;2.80;;;;;;;9.22;67.90;98568.91;24945;1318;3051923;-62
2022/04/09 04:38:16;;;;;;;6.40;3.10;;;;;;;9.26;67.48;98570.20;25061;1318;3026446;-62
2022/04/09 04:40:49;;;;;;;7.00;3.20;;;;;;;9.10;67.27;98571.31;24963;1318;3027206;-63
2022/04/09 04:43:18;;;;;;;7.70;4.50;;;;;;;8.92;67.49;98572.20;25006;1317;3026647;-62
2022/04/09 04:45:48;;;;;;;12.80;5.20;;;;;;;8.83;68.20;98573.15;25025;1317;3026924;-62
2022/04/09 04:48:21;;;;;;;8.40;4.40;;;;;;;8.73;68.86;98576.47;25026;1317;3027214;-62
2022/04/09 04:50:51;;;;;;;8.90;4.80;;;;;;;8.65;69.15;98575.95;25046;1317;3026999;-63
2022/04/09 04:53:21;;;;;;;9.80;5.10;;;;;;;8.53;69.52;98577.27;25039;1316;3026388;-61
2022/04/09 04:55:55;;;;;;;7.30;4.00;;;;;;;8.51;68.99;98566.35;25101;1319;3053537;-60
2022/04/09 04:58:26;;;;;;;10.50;4.90;;;;;;;8.61;68.53;98565.75;25034;1316;3026912;-63
2022/04/09 05:01:20;;;;;;;7.90;4.30;;;;;;;8.63;68.12;98566.79;25048;1317;3056820;-63
2022/04/09 05:03:53;;;;;;;5.40;2.90;;;;;;;8.70;68.06;98572.30;25061;1318;3026803;-61
2022/04/09 05:06:25;;;;;;;5.50;3.10;;;;;;;9.38;66.81;98576.52;25054;1318;3026153;-62
2022/04/09 05:08:54;;;;;;;4.30;2.80;;;;;;;9.90;64.21;98580.43;25029;1318;3027721;-62
2022/04/09 05:11:47;;;;;;;6.30;3.30;;;;;;;9.92;63.63;98581.34;24996;1318;3071631;-62
2022/04/09 05:14:20;;;;;;;6.20;3.30;;;;;;;9.73;64.44;98583.19;25064;1319;3026371;-62
2022/04/09 05:16:52;;;;;;;6.50;3.20;;;;;;;9.57;65.35;98582.27;25018;1318;3026781;-62
2022/04/09 05:19:21;;;;;;;5.70;2.60;;;;;;;9.46;65.92;98572.87;25073;1319;3026476;-61
2022/04/09 05:21:55;;;;;;;5.80;3.20;;;;;;;9.50;65.89;98569.45;25111;1316;3056651;-63
2022/04/09 05:24:26;;;;;;;5.50;2.60;;;;;;;9.52;66.06;98568.56;25055;1316;3026835;-60
2022/04/09 05:26:55;;;;;;;3.90;2.70;;;;;;;9.53;65.71;98564.64;25056;1318;3026223;-61
2022/04/09 05:29:26;;;;;;;11.50;3.20;;;;;;;9.64;65.62;98558.85;25058;1316;3026372;-63
2022/04/09 05:31:55;;;;;;;9.10;3.00;;;;;;;9.68;65.65;98556.05;25055;1317;3026290;-61
2022/04/09 05:34:25;;;;;;;9.30;2.70;;;;;;;9.67;65.12;98556.67;25053;1316;3026388;-62
2022/04/09 05:36:54;;;;;;;3.60;3.00;;;;;;;9.65;64.95;98561.90;25009;1318;3026620;-61
2022/04/09 05:39:23;;;;;;;7.10;2.40;;;;;;;9.72;64.79;98562.13;25010;1318;3070223;-63
2022/04/09 05:41:55;;;;;;;5.90;2.90;;;;;;;9.74;63.72;98556.91;25071;1315;3026626;-59
2022/04/09 05:44:25;;;;;;;4.70;2.60;;;;;;;9.81;63.05;98552.00;25002;1316;3026595;-61
2022/04/09 05:46:54;;;;;;;7.70;3.10;;;;;;;9.86;62.45;98550.23;25010;1316;3026875;-65
2022/04/09 05:49:23;;;;;;;3.50;2.30;;;;;;;10.01;61.54;98552.14;25137;1316;3026848;-62
2022/04/09 05:51:53;;;;;;;3.40;2.20;;;;;;;10.16;61.38;98558.73;25173;1316;3053912;-61
2022/04/09 05:54:23;;;;;;;5.20;2.60;;;;;;;10.28;60.46;98556.48;24997;1318;3026939;-60
2022/04/09 05:56:54;;;;;;;3.80;2.30;;;;;;;10.42;59.91;98553.95;25035;1318;3028653;-58
2022/04/09 05:59:26;;;;;;;5.90;1.90;;;;;;;10.57;59.21;98548.75;25002;1317;3029159;-64
2022/04/09 06:01:56;;;;;;;6.80;1.80;;;;;;;10.64;57.69;98545.30;25028;1318;3027092;-61
2022/04/09 06:04:27;;;;;;;4.00;1.60;;;;;;;10.75;57.18;98551.45;25002;1319;3028839;-63
2022/04/09 06:06:56;;;;;;;5.70;1.70;;;;;;;10.87;56.83;98548.27;25030;1315;3026544;-63
2022/04/09 06:09:29;;;;;;;5.60;1.40;;;;;;;10.96;56.65;98554.58;25036;1315;3028499;-64
2022/04/09 06:12:07;;;;;;;3.20;1.30;;;;;;;11.08;56.76;98552.96;24997;1318;3056507;-63
2022/04/09 06:14:49;;;;;;;3.60;1.50;;;;;;;11.16;56.68;98563.92;25069;1318;3054907;-64
2022/04/09 06:17:19;;;;;;;6.60;2.00;;;;;;;11.15;56.49;98568.34;25036;1318;3026272;-62
2022/04/09 06:19:48;;;;;;;7.70;2.30;;;;;;;11.29;57.26;98560.12;25030;1316;3026112;-63
2022/04/09 06:22:18;;;;;;;4.70;1.90;;;;;;;11.45;56.87;98556.07;25128;1316;3052047;-62
2022/04/09 06:24:48;;;;;;;6.70;1.80;;;;;;;11.60;56.66;98556.08;25117;1318;3026596;-61
2022/04/09 06:27:18;;;;;;;5.30;1.70;;;;;;;11.63;54.87;98548.85;25011;1316;3030086;-63
2022/04/09 06:29:49;;;;;;;7.90;2.20;;;;;;;11.78;54.09;98546.42;25038;1318;3026486;-64
2022/04/09 06:32:18;;;;;;;6.10;2.30;;;;;;;11.94;55.70;98548.02;24956;1318;3026257;-63
2022/04/09 06:34:48;;;;;;;11.80;3.20;;;;;;;12.05;55.14;98546.79;24975;1318;3051565;-64
2022/04/09 06:37:22;;;;;;;8.00;3.10;;;;;;;12.16;56.46;98552.33;25021;1315;3053000;-63
2022/04/09 06:39:52;;;;;;;5.00;1.80;;;;;;;12.23;54.24;98558.83;25068;1318;3026563;-63
2022/04/09 06:42:22;;;;;;;6.00;1.80;;;;;;;12.26;52.76;98562.46;25044;1316;3027092;-63
2022/04/09 06:45:15;;;;;;;5.00;1.50;;;;;;;12.34;52.31;98569.00;24993;1318;3053210;-64
2022/04/09 06:48:18;;;;;;;2.70;1.30;;;;;;;12.44;52.07;98563.04;24904;1315;3053017;-63
2022/04/09 06:51:08;;;;;;;4.00;1.50;;;;;;;12.55;52.57;98562.83;25066;1315;3055507;-65
2022/04/09 06:53:39;;;;;;;5.30;1.70;;;;;;;12.57;52.52;98558.34;25036;1315;3026519;-63
2022/04/09 06:56:09;;;;;;;3.50;1.90;;;;;;;12.61;52.75;98554.99;25027;1318;3026341;-64
2022/04/09 06:58:38;;;;;;;4.20;2.00;;;;;;;12.63;53.38;98553.40;25063;1315;3026905;-62
2022/04/09 07:01:09;;;;;;;2.90;1.60;;;;;;;12.75;53.25;98552.96;25040;1318;3056706;-63
2022/04/09 07:03:39;;;;;;;4.60;2.30;;;;;;;12.83;53.44;98556.99;25104;1315;3027006;-62
2022/04/09 07:06:10;;;;;;;4.90;1.90;;;;;;;12.95;53.73;98559.36;24991;1319;3026712;-63
2022/04/09 07:08:39;;;;;;;4.30;1.90;;;;;;;13.11;53.46;98564.16;25009;1318;3026475;-63
2022/04/09 07:11:09;;;;;;;7.00;1.90;;;;;;;13.22;52.85;98567.41;24961;1317;3026848;-63
2022/04/09 07:13:41;;;;;;;7.50;2.10;;;;;;;13.17;50.59;98569.77;25021;1315;3026593;-63
2022/04/09 07:16:11;;;;;;;4.30;1.70;;;;;;;13.23;51.18;98572.98;24966;1316;3026690;-64
2022/04/09 07:18:40;;;;;;;8.90;2.70;;;;;;;13.38;52.65;98565.89;24973;1316;3027261;-64
2022/04/09 07:21:10;;;;;;;5.60;2.20;;;;;;;13.46;52.48;98562.39;25093;1316;3026825;-62
2022/04/09 07:23:39;;;;;;;3.50;2.30;;;;;;;13.56;52.07;98565.04;24981;1316;3026181;-63
2022/04/09 07:26:08;;;;;;;4.70;2.10;;;;;;;13.71;50.78;98567.49;25052;1316;3053446;-63
2022/04/09 07:28:46;;;;;;;4.10;1.50;;;;;;;13.69;48.22;98567.60;25009;1318;3059369;-64
2022/04/09 07:31:15;;;;;;;4.00;1.60;;;;;;;13.78;48.19;98563.32;25054;1318;3026794;-63
2022/04/09 07:33:47;;;;;;;3.30;1.40;;;;;;;13.90;47.68;98566.61;25102;1315;3053593;-64
2022/04/09 07:36:16;;;;;;;6.90;1.60;;;;;;;14.00;46.77;98562.94;24997;1318;3026288;-64
2022/04/09 07:38:46;;;;;;;5.00;1.80;;;;;;;13.84;43.76;98574.05;25050;1318;3054554;-61
2022/04/09 07:41:15;;;;;;;3.60;1.30;;;;;;;13.73;43.77;98580.79;24985;1316;3026506;-62
2022/04/09 07:43:46;;;;;;;6.70;1.50;;;;;;;13.81;43.76;98586.12;25037;1318;3048783;-64
2022/04/09 07:46:15;;;;;;;7.70;1.70;;;;;;;13.91;43.85;98588.24;25040;1318;3026277;-62
2022/04/09 07:48:45;;;;;;;10.20;1.60;;;;;;;13.99;43.13;98591.18;25025;1318;3069972;-63
2022/04/09 07:51:15;;;;;;;3.70;1.60;;;;;;;14.08;42.93;98583.97;25048;1318;3026983;-63
2022/04/09 07:53:45;;;;;;;3.60;1.70;;;;;;;14.26;42.41;98573.73;25010;1318;3051231;-64
2022/04/09 07:56:14;;;;;;;5.60;1.90;;;;;;;14.44;41.92;98558.68;25021;1316;3026566;-64
2022/04/09 07:58:43;;;;;;;8.80;2.20;;;;;;;14.65;41.98;98551.30;25057;1318;3026619;-64
2022/04/09 08:01:12;;;;;;;4.90;2.10;;;;;;;14.84;41.92;98547.35;25029;1317;3053661;-63
2022/04/09 08:03:43;;;;;;;8.60;2.30;;;;;;;15.09;41.34;98548.12;24985;1316;3026828;-64
2022/04/09 08:06:12;;;;;;;7.80;2.30;;;;;;;15.20;38.80;98551.52;25062;1317;3026469;-63
2022/04/09 08:08:41;;;;;;;7.20;2.10;;;;;;;15.39;38.04;98552.60;25058;1318;3028455;-64
2022/04/09 08:11:11;;;;;;;6.70;2.70;;;;;;;15.47;37.76;98539.40;25000;1317;3069337;-63
2022/04/09 08:13:40;;;;;;;5.90;2.30;;;;;;;15.58;37.35;98539.82;25015;1317;3027185;-63
2022/04/09 08:16:11;;;;;;;6.10;2.40;;;;;;;15.52;34.38;98538.83;25055;1318;3026470;-62
2022/04/09 08:18:40;;;;;;;7.50;2.80;;;;;;;15.57;35.03;98527.70;25003;1316;3026940;-65
2022/04/09 08:21:09;;;;;;;6.20;2.50;;;;;;;15.71;35.67;98528.52;25079;1316;3026501;-63
2022/04/09 08:23:39;;;;;;;13.80;3.50;;;;;;;15.93;35.14;98526.59;25024;1318;3054680;-63
2022/04/09 08:26:08;;;;;;;6.20;3.10;;;;;;;15.92;33.57;98531.31;25110;1318;3026686;-64
2022/04/09 08:28:39;;;;;;;11.10;3.80;;;;;;;15.98;34.30;98529.62;25006;1318;3050887;-61
2022/04/09 08:31:11;;;;;;;8.70;3.60;;;;;;;15.99;34.91;98524.99;25079;1317;3028517;-62
2022/04/09 08:33:42;;;;;;;10.90;4.70;;;;;;;16.05;35.06;98534.65;25027;1317;3026325;-60
2022/04/09 08:36:11;;;;;;;11.40;4.60;;;;;;;16.06;34.97;98533.41;25026;1317;3049009;-60
2022/04/09 08:38:40;;;;;;;12.10;5.00;;;;;;;16.03;33.51;98524.01;24995;1319;3027030;-63
2022/04/09 08:41:10;;;;;;;11.40;5.40;;;;;;;16.17;33.60;98516.14;25073;1319;3026902;-64
2022/04/09 08:43:40;;;;;;;16.20;6.10;;;;;;;16.34;32.73;98512.02;25015;1317;3050422;-61
2022/04/09 08:46:09;;;;;;;14.90;7.00;;;;;;;16.38;32.61;98520.09;25057;1318;3026240;-63
2022/04/09 08:48:39;;;;;;;15.00;7.30;;;;;;;16.56;33.06;98509.41;25059;1318;3027342;-61
2022/04/09 08:51:08;;;;;;;26.10;8.60;;;;;;;16.74;32.41;98504.55;25033;1318;3026764;-61
2022/04/09 08:53:37;;;;;;;19.60;8.10;;;;;;;16.67;31.60;98506.49;24988;1318;3054526;-61
2022/04/09 08:56:07;;;;;;;13.80;6.10;;;;;;;16.34;30.46;98509.49;24944;1317;3026241;-63
2022/04/09 08:58:37;;;;;;;18.50;7.10;;;;;;;16.25;30.55;98507.05;25051;1318;3048881;-63
2022/04/09 09:01:06;;;;;;;14.40;6.30;;;;;;;16.28;31.53;98505.27;25033;1318;3026361;-63
2022/04/09 09:03:35;;;;;;;13.30;5.90;;;;;;;16.36;30.90;98500.33;25062;1317;3070738;-62
2022/04/09 09:06:28;;;;;;;10.00;5.00;;;;;;;16.42;31.26;98498.75;25017;1316;3026900;-62
2022/04/09 09:08:59;;;;;;;9.30;3.90;;;;;;;16.54;31.05;98505.07;25079;1318;3054711;-61
2022/04/09 09:11:29;;;;;;;9.50;2.50;;;;;;;16.48;30.38;98508.65;25041;1318;3026217;-61
2022/04/09 09:14:00;;;;;;;7.80;2.70;;;;;;;16.48;29.77;98509.73;25034;1318;3026988;-62
2022/04/09 09:16:30;;;;;;;5.80;2.30;;;;;;;16.63;29.54;98511.55;25046;1319;3027112;-62
2022/04/09 09:19:04;;;;;;;5.80;2.50;;;;;;;16.53;29.54;98511.64;25076;1321;3026401;-61
2022/04/09 09:21:34;;;;;;;;;;;;;;;16.54;30.08;98511.94;25045;1316;3056943;-63
2022/04/09 09:24:06;;;;;;;6.50;1.90;;;;;;;16.39;30.56;98524.48;24978;1318;3026550;-60
2022/04/09 09:26:40;;;;;;;5.20;1.80;;;;;;;16.53;30.38;98526.45;24641;1318;3655398;-64
2022/04/09 09:29:11;;;;;;;3.60;1.90;;;;;;;16.69;29.15;98525.67;25006;1318;3058336;-64
2022/04/09 09:31:46;;;;;;;6.00;2.00;;;;;;;16.85;28.34;98520.08;24993;1316;3026609;-63
2022/04/09 09:34:18;;;;;;;5.40;1.30;;;;;;;16.82;27.47;98532.08;25120;1319;3053156;-64
2022/04/09 09:36:49;;;;;;;10.70;1.90;;;;;;;16.79;26.53;98521.21;25084;1318;3028498;-62
2022/04/09 09:39:25;;;;;;;4.30;1.60;;;;;;;17.13;26.64;98519.82;25048;1318;3026412;-64
2022/04/09 09:41:54;;;;;;;4.80;1.30;;;;;;;17.29;26.09;98513.16;25011;1318;3047747;-62
2022/04/09 09:44:25;;;;;;;4.30;1.20;;;;;;;17.47;26.35;98504.60;25115;1318;3026272;-63
2022/04/09 09:46:55;;;;;;;4.10;1.50;;;;;;;17.44;25.96;98500.98;25077;1317;3027189;-65
2022/04/09 09:49:25;;;;;;;5.00;1.30;;;;;;;17.41;26.17;98495.13;24975;1318;3026735;-63
2022/04/09 09:52:06;;;;;;;2.90;1.00;;;;;;;17.30;26.44;98490.96;24971;1318;3026027;-62
2022/04/09 09:54:57;;;;;;;2.50;1.10;;;;;;;17.04;26.75;98495.89;25030;1316;3053873;-63
2022/04/09 09:57:28;;;;;;;4.00;1.10;;;;;;;17.15;26.84;98493.39;25005;1318;3052462;-63
2022/04/09 10:00:04;;;;;;;5.70;1.60;;;;;;;16.98;26.95;98499.73;25064;1318;3026813;-64
2022/04/09 10:02:35;;;;;;;3.80;1.30;;;;;;;16.93;26.98;98501.81;25055;1319;3049718;-61
2022/04/09 10:05:08;;;;;;;4.60;1.40;;;;;;;16.89;26.70;98498.89;24945;1318;3026635;-62
2022/04/09 10:07:39;;;;;;;3.20;1.10;;;;;;;16.91;25.96;98499.92;25110;1318;3026501;-63
2022/04/09 10:10:08;;;;;;;4.30;1.80;;;;;;;16.86;25.99;98497.53;25065;1318;3026835;-62
2022/04/09 10:12:39;;;;;;;4.10;1.20;;;;;;;16.85;26.27;98496.45;25090;1316;3026490;-63
2022/04/09 10:15:10;;;;;;;5.80;1.80;;;;;;;17.02;26.65;98497.05;25086;1319;3026480;-62
2022/04/09 10:17:39;;;;;;;3.80;1.30;;;;;;;17.02;26.68;98495.29;25015;1319;3027988;-62
2022/04/09 10:20:09;;;;;;;3.70;1.60;;;;;;;17.17;26.97;98485.77;25053;1315;3026817;-63
2022/04/09 10:22:48;;;;;;;6.10;1.20;;;;;;;17.32;26.12;98473.98;25038;1318;3053877;-63
2022/04/09 10:25:17;;;;;;;5.60;1.50;;;;;;;17.32;24.69;98484.04;24988;1318;3054365;-63
2022/04/09 10:28:07;;;;;;;5.90;1.40;;;;;;;17.17;24.72;98482.53;24978;1319;3071431;-62
2022/04/09 10:30:40;;;;;;;7.40;1.40;;;;;;;17.05;25.40;98476.50;25053;1319;3026454;-61
2022/04/09 10:33:21;;;;;;;7.20;1.50;;;;;;;17.17;26.24;98471.84;25061;1315;3026887;-61
2022/04/09 10:35:51;;;;;;;6.30;1.80;;;;;;;17.19;26.90;98461.89;25007;1318;3055112;-63
2022/04/09 10:38:22;;;;;;;3.40;1.20;;;;;;;17.28;27.09;98465.84;25018;1315;3026730;-61
2022/04/09 10:40:57;;;;;;;7.90;1.50;;;;;;;17.28;26.92;98453.06;25090;1321;3026674;-62
2022/04/09 10:43:26;;;;;;;5.70;1.70;;;;;;;17.40;26.92;98453.63;25075;1318;3053806;-62
2022/04/09 10:46:08;;;;;;;3.20;1.20;;;;;;;17.48;26.64;98451.42;25028;1317;3026426;-61
2022/04/09 10:49:34;;;;;;;4.70;1.50;;;;;;;17.63;26.75;98441.98;31392;1319;3026650;-62
2022/04/09 10:52:16;;;;;;;5.00;2.30;;;;;;;18.00;27.21;98435.95;25004;1316;3026430;-64
2022/04/09 10:55:20;;;;;;;9.80;2.80;;;;;;;18.18;26.87;98435.83;25070;1316;3054949;-64
2022/04/09 10:57:52;;;;;;;4.90;2.00;;;;;;;18.02;27.25;98434.34;25069;1316;3059102;-62
2022/04/09 11:00:22;;;;;;;6.40;2.40;;;;;;;17.95;28.13;98439.50;25023;1316;3026497;-60
2022/04/09 11:03:10;;;;;;;6.60;2.40;;;;;;;17.86;28.14;98429.00;24841;1316;3406086;-61
2022/04/09 11:05:41;;;;;;;28.20;6.50;;;;;;;17.94;28.30;98425.13;25104;1316;3050616;-63
2022/04/09 11:08:19;;;;;;;20.10;4.90;;;;;;;17.82;28.91;98429.04;25110;1316;3026857;-63
2022/04/09 11:10:49;;;;;;;14.30;4.00;;;;;;;17.87;29.58;98426.59;25111;1316;3051382;-63
2022/04/09 11:13:38;;;;;;;21.70;5.40;;;;;;;17.98;30.62;98423.59;25120;1315;3052473;-67
2022/04/09 11:16:07;;;;;;;6.90;3.00;;;;;;;18.03;31.03;98417.60;25074;1316;3026699;-63
2022/04/09 11:18:42;;;;;;;19.40;5.30;;;;;;;18.00;32.18;98417.16;25108;1316;3027317;-63
2022/04/09 11:21:12;;;;;;;14.60;4.60;;;;;;;18.18;32.55;98414.39;25123;1314;3026413;-64
2022/04/09 11:23:46;;;;;;;13.90;5.20;;;;;;;18.19;33.21;98419.71;25022;1315;3026823;-65
2022/04/09 11:26:18;;;;;;;17.70;5.20;;;;;;;18.24;33.76;98407.02;25020;1314;3049810;-63
2022/04/09 11:28:47;;;;;;;7.80;3.40;;;;;;;18.51;33.58;98397.82;25115;1315;3026642;-64
2022/04/09 11:31:19;;;;;;;17.60;3.00;;;;;;;18.80;33.56;98390.05;25053;1315;3026792;-63
2022/04/09 11:33:56;;;;;;;11.30;2.90;;;;;;;18.86;33.54;98389.92;25050;1315;3049950;-63
2022/04/09 11:36:25;;;;;;;11.60;2.70;;;;;;;18.90;33.79;98385.33;25091;1315;3071005;-64
2022/04/09 11:38:56;;;;;;;8.20;2.90;;;;;;;19.19;33.83;98382.14;25054;1315;3028316;-68
2022/04/09 11:41:25;;;;;;;7.80;2.80;;;;;;;19.27;34.07;98379.27;25054;1315;3026253;-65
2022/04/09 11:44:00;;;;;;;12.60;2.80;;;;;;;19.38;34.27;98367.56;25065;1315;3070480;-69